Auxier, Kentucky
Current Conditions -  °F | °C
As of 6:55 PM on Friday 31 Oct 2014 (Local Time) from KSJS Reporting Station
Moderate Rain Moderate Rain  
Wind Chill: 44°   Ceiling: 1000
Heat Index: 44°   Visibility: 5mi
Dew Point: 43°   Wind: 0mph
Humidity: 96%   Direction: NA
Pressure: 29.86"   Gusts: NA
Location:  37.74°N, 82.76°W
Report Text: KSJS 312255Z AUTO 00000KT 5SM RA BKN010 BKN015 OVC020 07/06 A2986 RMK AO2 T00660060
Loading
Personal Weather Stations






























Interactive Weather Map
Tropical Storm Tracking
New forecast layout! Learn more

10-Day Weather Forecast

Advertisements
Track Severe Weather on mobile